Time;durP1;ratioP1;P1;durP2;ratioP2;P2;SDS_P1;SDS_P2;PMS_P1;PMS_P2;Temp;Humidity;BMP_temperature;BMP_pressure;BME280_temperature;BME280_humidity;BME280_pressure;Samples;Min_cycle;Max_cycle;Signal;HPM_P1;HPM_P2
2022/08/30 00:01:05;;;;;;;4.25;3.20;;;21.40;91.50;;;;;;5011476;28;20463;-72
2022/08/30 00:03:46;;;;;;;6.50;3.67;;;21.40;91.40;;;;;;5011835;28;20030;-71
2022/08/30 00:06:17;;;;;;;4.97;3.33;;;21.30;91.80;;;;;;5012240;28;20029;-71
2022/08/30 00:08:43;;;;;;;4.78;3.13;;;21.20;91.90;;;;;;5014752;28;20065;-71
2022/08/30 00:11:12;;;;;;;5.70;3.58;;;21.20;92.10;;;;;;5015714;28;20041;-71
2022/08/30 00:13:40;;;;;;;5.15;3.58;;;21.20;92.10;;;;;;5014876;28;20481;-71
2022/08/30 00:16:06;;;;;;;5.20;3.53;;;21.10;92.10;;;;;;5015457;28;20033;-71
2022/08/30 00:18:32;;;;;;;4.90;3.47;;;21.10;92.50;;;;;;5015004;28;20471;-71
2022/08/30 00:20:59;;;;;;;6.30;3.40;;;21.10;92.60;;;;;;5014749;28;20049;-71
2022/08/30 00:23:25;;;;;;;5.22;3.75;;;21.00;92.70;;;;;;5015508;28;20037;-71
2022/08/30 00:25:51;;;;;;;5.82;3.35;;;21.00;92.70;;;;;;5014990;28;20030;-70
2022/08/30 00:28:17;;;;;;;5.07;3.28;;;21.00;92.90;;;;;;5015534;28;20052;-70
2022/08/30 00:30:44;;;;;;;8.52;3.97;;;20.90;92.80;;;;;;5014506;28;20022;-70
2022/08/30 00:33:10;;;;;;;7.28;3.80;;;20.90;92.90;;;;;;5014843;28;20033;-70
2022/08/30 00:35:38;;;;;;;8.02;3.90;;;20.80;93.10;;;;;;5015157;28;20409;-70
2022/08/30 00:38:05;;;;;;;5.72;3.40;;;20.80;93.20;;;;;;5012005;28;20029;-70
2022/08/30 00:40:30;;;;;;;6.10;3.35;;;20.70;93.40;;;;;;5015050;28;20463;-71
2022/08/30 00:42:58;;;;;;;4.60;3.50;;;20.70;93.50;;;;;;5014823;28;20108;-70
2022/08/30 00:45:28;;;;;;;5.38;3.45;;;20.70;93.60;;;;;;5014835;28;20025;-72
2022/08/30 00:47:54;;;;;;;6.28;3.47;;;20.70;93.50;;;;;;5014355;28;20033;-70
2022/08/30 00:50:23;;;;;;;5.03;3.38;;;20.70;93.60;;;;;;5015088;28;20095;-72
2022/08/30 00:52:51;;;;;;;5.22;3.38;;;20.60;93.80;;;;;;5014180;28;20038;-72
2022/08/30 00:55:19;;;;;;;6.72;3.58;;;20.60;93.50;;;;;;5014879;28;20033;-72
2022/08/30 00:57:47;;;;;;;6.03;3.33;;;20.60;93.50;;;;;;5014522;28;20022;-70
2022/08/30 01:00:14;;;;;;;4.57;3.30;;;20.60;93.60;;;;;;5013990;28;20029;-70
2022/08/30 01:02:40;;;;;;;6.88;3.85;;;20.60;93.70;;;;;;5010164;28;20045;-71
2022/08/30 01:05:09;;;;;;;4.97;3.45;;;20.60;93.70;;;;;;5014800;28;20045;-71
2022/08/30 01:07:36;;;;;;;6.15;3.90;;;20.50;94.00;;;;;;5014570;28;20410;-71
2022/08/30 01:10:02;;;;;;;7.00;3.72;;;20.60;93.90;;;;;;5013966;28;20359;-71
2022/08/30 01:12:28;;;;;;;5.40;3.53;;;20.60;93.90;;;;;;5014472;28;20036;-71
2022/08/30 01:14:56;;;;;;;6.43;3.78;;;20.50;94.00;;;;;;5013919;28;20111;-71
2022/08/30 01:17:22;;;;;;;6.55;3.50;;;20.50;94.10;;;;;;5013500;28;20446;-72
2022/08/30 01:20:02;;;;;;;5.47;3.72;;;20.50;94.20;;;;;;5013130;28;20030;-72
2022/08/30 01:22:41;;;;;;;6.20;3.30;;;20.50;94.10;;;;;;5014467;28;20026;-71
2022/08/30 01:25:09;;;;;;;6.72;3.65;;;20.50;94.20;;;;;;5014710;28;20034;-72
2022/08/30 01:27:38;;;;;;;5.15;3.35;;;20.50;94.20;;;;;;5013963;28;20052;-72
2022/08/30 01:30:05;;;;;;;4.82;3.50;;;20.50;94.20;;;;;;5013618;28;20057;-72
2022/08/30 01:32:38;;;;;;;7.68;3.58;;;20.50;94.40;;;;;;5013296;28;20489;-72
2022/08/30 01:35:04;;;;;;;6.00;3.78;;;20.50;94.40;;;;;;5013888;28;20040;-72
2022/08/30 01:37:32;;;;;;;5.38;3.88;;;20.50;94.40;;;;;;5013780;28;20390;-71
2022/08/30 01:39:58;;;;;;;7.10;3.63;;;20.60;94.50;;;;;;5013640;28;20034;-72
2022/08/30 01:42:24;;;;;;;5.32;3.42;;;20.50;94.40;;;;;;5013827;28;20033;-72
2022/08/30 01:44:50;;;;;;;5.30;3.83;;;20.50;94.40;;;;;;5013538;28;20026;-72
2022/08/30 01:47:17;;;;;;;6.78;3.53;;;20.50;94.50;;;;;;5013263;28;20107;-72
2022/08/30 01:49:45;;;;;;;4.95;3.53;;;20.40;94.60;;;;;;5013552;28;20041;-72
2022/08/30 01:52:12;;;;;;;5.90;3.30;;;20.40;94.80;;;;;;5013969;28;20018;-72
2022/08/30 01:54:40;;;;;;;4.78;3.47;;;20.30;94.90;;;;;;5013785;28;20110;-71
2022/08/30 01:57:07;;;;;;;6.68;3.80;;;20.30;95.20;;;;;;5013285;28;20451;-72
2022/08/30 01:59:32;;;;;;;7.20;4.57;;;20.30;95.50;;;;;;5013768;28;20026;-72
2022/08/30 02:01:58;;;;;;;4.55;3.55;;;20.20;95.70;;;;;;5012510;28;20030;-72
2022/08/30 02:04:25;;;;;;;4.43;3.63;;;20.20;95.90;;;;;;5013635;28;20104;-71
2022/08/30 02:06:52;;;;;;;6.70;3.85;;;20.10;96.10;;;;;;5013105;28;20051;-72
2022/08/30 02:09:17;;;;;;;5.22;3.25;;;20.10;96.40;;;;;;5013415;28;20467;-71
2022/08/30 02:11:43;;;;;;;10.35;4.28;;;20.10;96.60;;;;;;5013581;28;20110;-72
2022/08/30 02:14:09;;;;;;;6.65;3.90;;;20.00;96.80;;;;;;5013449;28;20254;-71
2022/08/30 02:16:34;;;;;;;7.28;3.72;;;20.00;97.00;;;;;;5012393;28;20482;-71
2022/08/30 02:19:00;;;;;;;5.20;3.92;;;20.00;97.10;;;;;;5012973;28;20025;-72
2022/08/30 02:21:29;;;;;;;6.70;4.20;;;20.00;97.20;;;;;;5013336;28;20108;-72
2022/08/30 02:23:54;;;;;;;5.75;3.60;;;20.00;97.40;;;;;;5012742;28;20038;-72
2022/08/30 02:26:20;;;;;;;7.28;4.50;;;19.90;97.70;;;;;;5013213;28;20105;-71
2022/08/30 02:28:47;;;;;;;6.53;3.65;;;19.90;97.90;;;;;;5012870;28;20025;-72
2022/08/30 02:31:13;;;;;;;5.22;3.33;;;19.80;98.00;;;;;;5012286;28;20029;-72
2022/08/30 02:33:39;;;;;;;6.35;3.67;;;19.80;98.10;;;;;;5012507;28;20054;-72
2022/08/30 02:36:06;;;;;;;10.38;3.80;;;19.80;98.10;;;;;;5012605;28;20080;-71
2022/08/30 02:38:32;;;;;;;5.03;4.10;;;19.80;98.20;;;;;;5013086;28;20037;-72
2022/08/30 02:40:58;;;;;;;7.03;3.50;;;19.80;98.70;;;;;;4991185;28;20544;-72
2022/08/30 02:43:23;;;;;;;6.88;3.38;;;19.70;98.40;;;;;;4993381;28;20034;-71
2022/08/30 02:45:49;;;;;;;5.22;3.40;;;19.70;98.50;;;;;;4992399;28;20105;-71
2022/08/30 02:48:15;;;;;;;5.25;4.00;;;19.70;98.70;;;;;;4992868;28;20031;-72
2022/08/30 02:50:43;;;;;;;8.70;3.67;;;19.70;98.80;;;;;;4993298;28;20078;-71
2022/08/30 02:53:10;;;;;;;8.32;4.30;;;19.70;98.80;;;;;;4992855;28;20117;-72
2022/08/30 02:55:35;;;;;;;5.55;3.88;;;19.70;99.00;;;;;;4993368;28;20110;-72
2022/08/30 02:58:02;;;;;;;4.40;3.58;;;19.70;99.10;;;;;;5006599;28;20026;-72
2022/08/30 03:00:28;;;;;;;4.57;3.53;;;19.70;99.20;;;;;;5012446;28;20033;-72
2022/08/30 03:02:53;;;;;;;5.50;3.47;;;19.60;99.10;;;;;;5011814;28;20038;-72
2022/08/30 03:05:19;;;;;;;6.13;3.78;;;19.60;99.00;;;;;;5012438;28;20036;-71
2022/08/30 03:07:46;;;;;;;5.30;3.50;;;19.60;99.20;;;;;;5012970;28;20040;-71
2022/08/30 03:10:13;;;;;;;4.63;3.53;;;19.60;99.20;;;;;;5012474;28;20032;-71
2022/08/30 03:12:40;;;;;;;6.95;4.28;;;19.60;99.20;;;;;;5012732;28;20052;-70
2022/08/30 03:15:07;;;;;;;5.15;3.60;;;19.60;99.40;;;;;;5011915;28;20488;-70
2022/08/30 03:17:33;;;;;;;7.60;3.90;;;19.60;99.30;;;;;;5012125;28;20036;-70
2022/08/30 03:20:00;;;;;;;6.18;4.10;;;19.60;99.50;;;;;;5011989;28;20057;-70
2022/08/30 03:22:28;;;;;;;5.68;3.47;;;19.50;99.50;;;;;;5012468;28;20042;-71
2022/08/30 03:24:58;;;;;;;6.68;3.80;;;19.50;99.70;;;;;;5012173;28;20026;-72
2022/08/30 03:27:25;;;;;;;5.40;3.80;;;19.40;99.90;;;;;;5012748;28;20056;-72
2022/08/30 03:29:50;;;;;;;6.22;4.05;;;19.40;99.90;;;;;;5011731;28;20110;-71
2022/08/30 03:32:16;;;;;;;5.70;3.60;;;19.40;99.90;;;;;;5011832;28;20105;-72
2022/08/30 03:34:42;;;;;;;8.50;4.38;;;19.40;99.90;;;;;;5012379;28;20037;-70
2022/08/30 03:37:08;;;;;;;6.95;3.78;;;19.40;99.90;;;;;;5011925;28;20026;-72
2022/08/30 03:39:33;;;;;;;6.18;4.25;;;19.40;99.90;;;;;;5012472;28;20096;-72
2022/08/30 03:41:59;;;;;;;5.68;4.20;;;19.30;99.90;;;;;;5012119;28;20062;-72
2022/08/30 03:44:25;;;;;;;6.97;4.68;;;19.30;99.90;;;;;;5016011;28;20033;-71
2022/08/30 03:46:51;;;;;;;8.02;4.50;;;19.30;99.90;;;;;;5015031;28;20033;-72
2022/08/30 03:49:18;;;;;;;5.88;4.10;;;19.30;99.90;;;;;;5016038;28;20022;-72
2022/08/30 03:51:44;;;;;;;6.53;4.10;;;19.30;99.90;;;;;;5016088;28;20101;-72
2022/08/30 03:54:09;;;;;;;5.88;4.55;;;19.30;99.90;;;;;;5015589;28;20034;-72
2022/08/30 03:56:35;;;;;;;6.40;4.55;;;19.30;99.90;;;;;;5015963;28;20026;-72
2022/08/30 03:59:01;;;;;;;4.90;4.40;;;19.30;99.90;;;;;;5015516;28;20132;-72
2022/08/30 04:01:27;;;;;;;7.18;4.28;;;19.20;99.90;;;;;;5015009;28;20503;-72
2022/08/30 04:03:52;;;;;;;8.82;4.00;;;19.30;99.90;;;;;;5014939;28;20041;-72
2022/08/30 04:06:18;;;;;;;8.02;4.63;;;19.30;99.90;;;;;;5015554;28;20025;-70
2022/08/30 04:08:44;;;;;;;7.15;5.10;;;19.30;99.90;;;;;;5015785;28;20048;-70
2022/08/30 04:11:11;;;;;;;5.68;3.92;;;19.30;99.90;;;;;;5015373;28;20022;-70
2022/08/30 04:13:36;;;;;;;4.97;4.47;;;19.30;99.90;;;;;;5015689;28;20065;-70
2022/08/30 04:16:02;;;;;;;6.95;4.00;;;19.30;99.90;;;;;;5014743;28;20030;-72
2022/08/30 04:18:28;;;;;;;5.55;3.97;;;19.30;99.90;;;;;;5015469;28;20022;-71
2022/08/30 04:20:54;;;;;;;9.35;4.75;;;19.30;99.90;;;;;;5015074;28;20054;-71
2022/08/30 04:23:20;;;;;;;9.95;4.78;;;19.30;99.90;;;;;;5014122;28;20037;-71
2022/08/30 04:25:46;;;;;;;6.60;4.30;;;19.30;99.90;;;;;;5000554;28;20022;-71
2022/08/30 04:28:11;;;;;;;6.05;4.53;;;19.30;99.90;;;;;;5002631;28;20427;-71
2022/08/30 04:30:39;;;;;;;9.55;4.75;;;19.30;99.90;;;;;;5003052;28;20028;-71
2022/08/30 04:33:06;;;;;;;7.07;4.68;;;19.30;99.90;;;;;;5010451;28;20025;-72
2022/08/30 04:35:32;;;;;;;8.02;4.43;;;19.30;99.90;;;;;;5014542;28;20022;-72
2022/08/30 04:37:57;;;;;;;10.00;4.80;;;19.30;99.90;;;;;;5014115;28;20368;-72
2022/08/30 04:40:23;;;;;;;7.25;4.03;;;19.30;99.90;;;;;;5014336;28;20045;-72
2022/08/30 04:42:52;;;;;;;8.75;4.88;;;19.30;99.90;;;;;;5014177;28;20053;-71
2022/08/30 04:45:19;;;;;;;7.45;4.30;;;19.30;99.90;;;;;;5014054;28;20084;-71
2022/08/30 04:47:45;;;;;;;5.72;4.55;;;19.30;99.90;;;;;;4997653;28;20037;-71
2022/08/30 04:50:13;;;;;;;8.13;4.70;;;19.40;99.90;;;;;;5008680;28;20414;-71
2022/08/30 04:52:39;;;;;;;8.85;5.13;;;19.40;99.90;;;;;;5014455;28;20041;-71
2022/08/30 04:55:07;;;;;;;9.02;4.65;;;19.50;99.90;;;;;;5013019;28;20467;-71
2022/08/30 04:57:33;;;;;;;6.97;4.68;;;19.50;99.90;;;;;;5011377;28;20394;-71
2022/08/30 05:00:00;;;;;;;9.45;4.70;;;19.50;99.90;;;;;;5013955;28;20057;-71
2022/08/30 05:02:25;;;;;;;7.28;4.88;;;19.50;99.90;;;;;;5002886;28;20395;-71
2022/08/30 05:07:36;;;;;;;11.52;4.70;;;19.50;99.90;;;;;;4994571;28;20033;-72
2022/08/30 05:10:03;;;;;;;8.20;5.60;;;19.50;99.90;;;;;;4976203;28;20026;-72
2022/08/30 05:12:28;;;;;;;10.43;4.30;;;19.60;99.90;;;;;;4976897;28;20471;-71
2022/08/30 05:14:57;;;;;;;9.52;4.53;;;19.60;99.90;;;;;;4994244;28;20030;-71
2022/08/30 05:17:23;;;;;;;10.00;5.07;;;19.70;99.90;;;;;;4994756;28;20037;-71
2022/08/30 05:19:49;;;;;;;8.73;4.22;;;19.70;99.90;;;;;;4994820;28;20026;-71
2022/08/30 05:22:14;;;;;;;5.82;4.53;;;19.70;99.90;;;;;;4994688;28;20490;-71
2022/08/30 05:24:40;;;;;;;8.68;4.82;;;19.70;99.90;;;;;;4994866;28;20121;-71
2022/08/30 05:27:06;;;;;;;7.78;4.28;;;19.80;99.90;;;;;;4994246;28;20101;-71
2022/08/30 05:29:32;;;;;;;6.72;3.85;;;19.80;99.90;;;;;;4977469;28;20459;-71
2022/08/30 05:31:58;;;;;;;6.22;4.05;;;19.90;99.90;;;;;;4994117;28;20446;-73
2022/08/30 05:34:24;;;;;;;8.25;4.88;;;20.00;99.90;;;;;;4994521;28;20034;-70
2022/08/30 05:36:49;;;;;;;5.55;4.07;;;20.00;99.90;;;;;;4994781;28;20093;-71
2022/08/30 05:39:15;;;;;;;9.65;4.28;;;20.00;99.90;;;;;;4994039;28;20033;-70
2022/08/30 05:41:40;;;;;;;6.15;3.67;;;20.10;99.80;;;;;;4977212;28;20030;-70
2022/08/30 05:44:08;;;;;;;11.15;4.13;;;20.20;99.50;;;;;;4993879;28;20038;-71
2022/08/30 05:46:35;;;;;;;7.88;4.85;;;20.20;99.30;;;;;;4994296;28;20033;-71
2022/08/30 05:49:02;;;;;;;7.93;3.75;;;20.30;98.70;;;;;;4994082;28;20387;-72
2022/08/30 05:51:29;;;;;;;9.15;4.40;;;20.30;98.30;;;;;;4994255;28;20084;-71
2022/08/30 05:53:57;;;;;;;7.07;3.88;;;20.40;98.00;;;;;;4994466;28;20112;-72
2022/08/30 05:56:31;;;;;;;6.60;4.63;;;20.40;97.60;;;;;;4994344;28;20053;-70
2022/08/30 05:58:57;;;;;;;6.53;3.65;;;20.50;97.60;;;;;;4994325;28;20383;-70
2022/08/30 06:01:27;;;;;;;6.95;3.78;;;20.60;97.20;;;;;;4994006;28;20030;-70
2022/08/30 06:03:54;;;;;;;6.68;3.33;;;20.80;97.30;;;;;;4993941;28;20037;-70
2022/08/30 06:06:20;;;;;;;4.53;2.97;;;21.00;96.20;;;;;;4993528;28;20026;-71
2022/08/30 06:08:47;;;;;;;5.10;3.17;;;21.20;94.60;;;;;;4994000;28;20485;-71
2022/08/30 06:11:19;;;;;;;5.65;3.05;;;21.50;93.60;;;;;;4993342;28;20472;-69
2022/08/30 06:13:45;;;;;;;5.68;3.20;;;21.60;92.90;;;;;;4994368;28;20053;-71
2022/08/30 06:16:14;;;;;;;6.80;3.40;;;21.80;92.30;;;;;;4993986;28;20072;-70
2022/08/30 06:18:40;;;;;;;9.38;3.03;;;22.10;91.30;;;;;;4994663;28;20034;-70
2022/08/30 06:21:06;;;;;;;5.63;3.28;;;22.30;90.30;;;;;;4993967;28;20050;-71
2022/08/30 06:23:32;;;;;;;7.25;3.15;;;22.50;90.20;;;;;;4993539;28;20089;-70
2022/08/30 06:26:06;;;;;;;4.32;2.90;;;22.80;88.60;;;;;;4994032;28;20093;-70
2022/08/30 06:28:31;;;;;;;6.47;3.10;;;23.00;85.00;;;;;;4993614;28;20191;-70
2022/08/30 06:30:57;;;;;;;8.10;3.33;;;23.20;83.80;;;;;;4993627;28;20131;-70
2022/08/30 06:33:24;;;;;;;5.50;2.90;;;23.40;82.30;;;;;;4993033;28;20364;-70
2022/08/30 06:35:49;;;;;;;9.75;2.90;;;23.60;79.70;;;;;;4993298;28;20073;-70
2022/08/30 06:38:15;;;;;;;7.57;3.17;;;23.90;77.90;;;;;;5009512;28;20030;-71
2022/08/30 06:40:41;;;;;;;13.82;3.40;;;24.10;76.50;;;;;;5013117;28;20030;-71
2022/08/30 06:43:07;;;;;;;5.35;2.95;;;24.30;75.30;;;;;;5012611;28;20034;-70
2022/08/30 06:45:34;;;;;;;5.20;2.60;;;24.60;74.70;;;;;;5012774;28;20033;-70
2022/08/30 06:48:00;;;;;;;4.93;3.13;;;24.90;72.40;;;;;;5013069;28;20034;-70
2022/08/30 06:50:26;;;;;;;7.22;3.13;;;25.30;71.20;;;;;;5012835;28;20449;-71
2022/08/30 06:52:52;;;;;;;5.50;2.25;;;25.60;66.70;;;;;;5013049;28;20040;-70
2022/08/30 06:55:19;;;;;;;6.35;2.95;;;25.80;65.40;;;;;;5012638;28;20026;-71
2022/08/30 06:57:45;;;;;;;4.10;2.60;;;26.20;65.90;;;;;;5012627;28;20034;-71
2022/08/30 07:00:14;;;;;;;4.10;2.63;;;26.60;63.10;;;;;;5007634;28;20141;-71
2022/08/30 07:02:40;;;;;;;5.45;2.80;;;27.00;61.10;;;;;;4995378;28;20065;-71
2022/08/30 07:05:08;;;;;;;7.57;2.30;;;27.40;60.30;;;;;;5012447;28;20093;-71
2022/08/30 07:07:34;;;;;;;6.15;2.40;;;27.90;58.90;;;;;;5012899;28;20026;-70
2022/08/30 07:10:06;;;;;;;6.40;2.72;;;28.40;57.10;;;;;;5012837;28;20025;-70
2022/08/30 07:12:32;;;;;;;4.78;2.30;;;29.00;55.20;;;;;;5012803;28;20045;-73
2022/08/30 07:14:58;;;;;;;5.28;2.72;;;29.70;53.00;;;;;;5012905;28;20034;-71
2022/08/30 07:20:09;;;;;;;8.43;2.65;;;31.30;49.00;;;;;;5016256;28;20137;-72
2022/08/30 07:22:34;;;;;;;4.13;2.42;;;32.40;47.90;;;;;;5016717;28;20042;-71
2022/08/30 07:25:00;;;;;;;8.43;2.60;;;33.10;46.10;;;;;;5016896;28;20022;-71
2022/08/30 07:27:26;;;;;;;7.20;2.67;;;33.80;45.00;;;;;;5016390;28;20026;-71
2022/08/30 07:29:51;;;;;;;6.47;2.28;;;34.30;43.30;;;;;;5016834;28;20104;-71
2022/08/30 07:32:17;;;;;;;3.30;2.10;;;34.90;42.20;;;;;;5016355;28;20112;-70
2022/08/30 07:34:43;;;;;;;7.78;2.78;;;35.10;41.60;;;;;;5016577;28;20033;-70
2022/08/30 07:37:08;;;;;;;5.03;2.15;;;35.60;40.40;;;;;;5016000;28;20032;-70
2022/08/30 07:39:34;;;;;;;5.22;2.28;;;36.10;40.50;;;;;;5016591;28;20137;-70
2022/08/30 07:42:00;;;;;;;7.07;2.28;;;36.40;39.20;;;;;;5016336;28;20124;-70
2022/08/30 07:44:26;;;;;;;6.32;2.45;;;37.00;37.90;;;;;;5015850;28;20382;-70
2022/08/30 07:46:52;;;;;;;3.65;2.05;;;37.50;37.40;;;;;;5015995;28;20030;-71
2022/08/30 07:49:18;;;;;;;4.30;2.40;;;37.90;37.10;;;;;;5015966;28;20115;-71
2022/08/30 07:51:44;;;;;;;5.57;2.40;;;38.20;35.80;;;;;;5016311;28;20088;-70
2022/08/30 07:54:10;;;;;;;5.40;2.50;;;38.10;35.60;;;;;;5015698;28;20029;-71
2022/08/30 07:56:36;;;;;;;3.22;2.10;;;38.00;35.70;;;;;;5016201;28;20421;-71
2022/08/30 07:59:01;;;;;;;3.85;2.38;;;38.20;36.00;;;;;;5016000;28;20121;-71
2022/08/30 08:01:27;;;;;;;2.80;1.88;;;38.00;35.40;;;;;;5016032;28;20038;-71
2022/08/30 08:03:53;;;;;;;9.77;2.17;;;38.00;35.70;;;;;;5015726;28;20447;-71
2022/08/30 08:06:20;;;;;;;3.13;2.28;;;37.90;34.40;;;;;;5015679;28;20375;-71
2022/08/30 08:08:46;;;;;;;5.20;2.30;;;37.90;35.60;;;;;;5015842;28;20031;-70
2022/08/30 08:11:24;;;;;;;5.22;2.13;;;38.40;34.60;;;;;;5015455;28;20033;-71
2022/08/30 08:13:51;;;;;;;6.45;2.20;;;39.20;34.90;;;;;;5015846;28;20045;-71
2022/08/30 08:16:17;;;;;;;3.00;1.70;;;39.80;33.30;;;;;;5015360;28;20033;-70
2022/08/30 08:18:43;;;;;;;2.60;1.90;;;40.40;33.30;;;;;;5015679;28;20029;-72
2022/08/30 08:21:10;;;;;;;4.93;2.00;;;40.80;32.70;;;;;;5015142;28;20053;-74
2022/08/30 08:23:36;;;;;;;4.97;2.30;;;41.00;32.10;;;;;;5015485;28;20122;-71
2022/08/30 08:26:20;;;;;;;3.97;2.03;;;41.40;31.20;;;;;;5015245;28;20108;-70
2022/08/30 08:28:46;;;;;;;3.10;1.88;;;41.30;30.80;;;;;;5015122;28;20030;-71
2022/08/30 08:31:24;;;;;;;4.65;2.20;;;41.00;31.30;;;;;;5014763;28;20368;-70
2022/08/30 08:33:50;;;;;;;4.55;2.00;;;41.00;30.50;;;;;;5015607;28;20091;-72
2022/08/30 08:36:17;;;;;;;3.42;1.67;;;41.00;31.10;;;;;;5014736;28;20029;-70
2022/08/30 08:38:43;;;;;;;4.88;1.90;;;41.30;30.90;;;;;;5015273;28;20030;-71
2022/08/30 08:41:26;;;;;;;3.67;1.80;;;41.10;30.40;;;;;;5015118;28;20033;-72
2022/08/30 08:43:52;;;;;;;4.55;2.13;;;40.80;30.50;;;;;;5011992;28;20030;-71
2022/08/30 08:46:46;;;;;;;3.67;1.63;;;40.80;30.80;;;;;;5014860;28;20465;-71
2022/08/30 08:49:12;;;;;;;4.95;1.80;;;40.90;30.90;;;;;;5014854;28;20478;-73
2022/08/30 08:54:55;;;;;;;4.00;2.33;;;39.60;31.40;;;;;;5014595;28;20080;-71
2022/08/30 08:57:21;;;;;;;5.53;2.22;;;38.40;32.40;;;;;;5014481;28;20029;-71
2022/08/30 08:59:47;;;;;;;3.45;1.83;;;36.90;34.40;;;;;;5014952;28;20036;-71
2022/08/30 09:02:24;;;;;;;7.10;2.20;;;36.40;34.70;;;;;;5014654;28;20017;-71
2022/08/30 09:04:54;;;;;;;2.30;1.75;;;36.00;36.40;;;;;;5014503;28;20049;-71
2022/08/30 09:07:23;;;;;;;4.95;2.10;;;35.60;36.10;;;;;;5014415;28;20057;-71
2022/08/30 09:09:49;;;;;;;4.13;1.80;;;35.00;36.30;;;;;;5014741;28;20029;-71
2022/08/30 09:12:15;;;;;;;5.57;2.45;;;34.40;36.60;;;;;;5014401;28;20026;-71
2022/08/30 09:14:48;;;;;;;5.05;2.30;;;34.00;37.70;;;;;;5014850;28;20022;-70
2022/08/30 09:17:17;;;;;;;3.85;2.03;;;33.90;38.20;;;;;;5014136;28;20022;-71
2022/08/30 09:19:45;;;;;;;7.07;2.28;;;33.40;38.40;;;;;;4996567;28;20026;-70
2022/08/30 09:22:20;;;;;;;4.45;2.17;;;33.30;38.80;;;;;;5015010;28;20034;-70
2022/08/30 09:25:01;;;;;;;2.88;1.80;;;33.00;39.00;;;;;;5014466;28;20129;-70
2022/08/30 09:27:30;;;;;;;5.10;1.92;;;32.70;39.50;;;;;;5013962;28;20030;-70
2022/08/30 09:29:57;;;;;;;4.18;1.98;;;32.30;38.50;;;;;;5014398;28;20048;-72
2022/08/30 09:32:38;;;;;;;6.35;2.05;;;32.00;39.80;;;;;;5014091;28;20152;-72
2022/08/30 09:35:07;;;;;;;3.13;1.73;;;31.70;39.00;;;;;;5014480;28;20022;-71
2022/08/30 09:37:37;;;;;;;3.40;2.15;;;31.50;40.10;;;;;;5013479;28;20048;-71
2022/08/30 09:40:37;;;;;;;3.53;1.80;;;31.40;40.80;;;;;;5013610;28;20026;-71
2022/08/30 09:43:04;;;;;;;2.75;1.92;;;31.30;40.90;;;;;;4929914;28;20486;-71
2022/08/30 09:45:37;;;;;;;5.13;1.85;;;31.30;40.90;;;;;;5013502;28;20041;-71
2022/08/30 09:48:31;;;;;;;3.25;2.00;;;31.10;40.70;;;;;;5014148;28;20037;-71
2022/08/30 09:51:20;;;;;;;4.05;2.00;;;31.00;41.00;;;;;;5014081;28;20208;-69
2022/08/30 09:54:17;;;;;;;3.40;1.85;;;31.00;41.50;;;;;;5013029;28;20042;-70
2022/08/30 09:57:02;;;;;;;5.68;2.63;;;30.80;40.90;;;;;;5013796;28;20053;-71
2022/08/30 10:00:09;;;;;;;4.60;2.25;;;30.80;40.50;;;;;;5013138;28;20463;-70
2022/08/30 10:02:41;;;;;;;4.25;1.42;;;30.60;39.70;;;;;;5013230;28;20383;-71
2022/08/30 10:05:15;;;;;;;4.05;2.15;;;30.40;39.90;;;;;;5013752;28;20025;-71
2022/08/30 10:07:54;;;;;;;2.45;2.03;;;30.50;40.00;;;;;;5013453;28;20030;-71
2022/08/30 10:10:41;;;;;;;2.58;1.60;;;30.40;40.20;;;;;;5013226;28;20026;-71
2022/08/30 10:13:37;;;;;;;3.53;2.05;;;30.10;40.00;;;;;;5013640;28;20034;-70
2022/08/30 10:16:25;;;;;;;2.40;1.50;;;30.20;40.10;;;;;;5013487;28;20029;-70
2022/08/30 10:18:59;;;;;;;4.28;1.98;;;30.20;40.80;;;;;;5013523;28;20026;-71
2022/08/30 10:21:57;;;;;;;2.10;1.60;;;30.20;39.60;;;;;;5012923;28;20068;-70
2022/08/30 10:24:27;;;;;;;2.80;1.77;;;30.20;40.00;;;;;;4993750;28;20057;-71
2022/08/30 10:26:58;;;;;;;3.42;1.98;;;30.30;41.00;;;;;;5013214;28;20441;-71
2022/08/30 10:29:35;;;;;;;3.97;1.77;;;30.40;41.10;;;;;;5012438;28;20033;-71
2022/08/30 10:32:19;;;;;;;3.50;2.00;;;30.40;40.60;;;;;;5013387;28;20061;-71
2022/08/30 10:35:02;;;;;;;2.20;1.75;;;30.40;41.10;;;;;;5013092;28;20106;-71
2022/08/30 10:37:30;;;;;;;6.28;1.90;;;30.40;40.80;;;;;;5012461;28;20045;-71
2022/08/30 10:41:11;;;;;;;3.88;2.13;;;30.40;40.70;;;;;;5009610;28;20083;-71
2022/08/30 10:42:51;;;;;;;4.03;1.92;;;30.40;41.40;;;;;;5012421;28;20037;-70
2022/08/30 10:45:17;;;;;;;5.68;2.25;;;30.40;41.20;;;;;;5012959;28;20045;-70
2022/08/30 10:48:26;;;;;;;2.72;1.52;;;30.50;41.00;;;;;;5012467;28;20034;-71
2022/08/30 10:50:57;;;;;;;3.83;1.63;;;30.50;41.40;;;;;;4999477;28;20048;-70
2022/08/30 10:53:31;;;;;;;4.68;2.15;;;30.50;40.70;;;;;;5011790;28;20038;-70
2022/08/30 10:56:04;;;;;;;5.40;2.17;;;30.40;40.50;;;;;;4995383;28;20053;-71
2022/08/30 10:58:30;;;;;;;5.03;1.70;;;30.40;40.70;;;;;;5012628;28;20031;-70
2022/08/30 11:01:29;;;;;;;2.30;1.77;;;30.30;40.50;;;;;;5012829;28;20425;-71
2022/08/30 11:04:27;;;;;;;2.33;1.67;;;30.40;41.10;;;;;;5012899;28;20518;-70
2022/08/30 11:07:14;;;;;;;3.50;1.80;;;30.30;40.30;;;;;;5012874;28;20092;-71
2022/08/30 11:09:40;;;;;;;5.45;2.08;;;30.20;40.70;;;;;;5011589;28;20049;-70
2022/08/30 11:12:31;;;;;;;3.78;1.98;;;30.10;40.70;;;;;;5012694;28;20090;-70
2022/08/30 11:14:58;;;;;;;4.60;2.00;;;30.10;41.60;;;;;;5012949;28;20041;-70
2022/08/30 11:17:42;;;;;;;3.05;1.90;;;30.20;41.50;;;;;;5012377;28;20022;-72
2022/08/30 11:20:26;;;;;;;3.30;1.65;;;30.20;40.20;;;;;;5012624;28;20042;-71
2022/08/30 11:23:29;;;;;;;2.55;1.83;;;30.10;40.30;;;;;;5012425;28;20044;-71
2022/08/30 11:26:00;;;;;;;3.70;1.88;;;30.20;40.20;;;;;;5012793;28;20033;-71
2022/08/30 11:28:35;;;;;;;3.67;1.85;;;30.20;40.40;;;;;;5012204;28;20030;-71
2022/08/30 11:31:07;;;;;;;3.22;1.58;;;30.20;39.70;;;;;;5012879;28;20026;-71
2022/08/30 11:33:41;;;;;;;4.00;1.83;;;30.20;40.00;;;;;;5012144;28;20037;-71
2022/08/30 11:36:08;;;;;;;4.00;1.80;;;30.30;39.50;;;;;;5012602;28;20538;-71
2022/08/30 11:38:33;;;;;;;5.38;1.83;;;30.30;40.10;;;;;;5011959;28;20076;-71
2022/08/30 11:41:28;;;;;;;3.15;1.55;;;30.40;40.40;;;;;;5012547;28;20112;-70
2022/08/30 11:43:55;;;;;;;6.88;2.13;;;30.50;39.50;;;;;;5012442;28;20117;-71
2022/08/30 11:46:27;;;;;;;4.63;1.75;;;30.50;39.60;;;;;;5012268;28;20041;-70
2022/08/30 11:49:08;;;;;;;2.70;1.67;;;30.20;39.50;;;;;;5012408;28;20021;-71
2022/08/30 11:52:22;;;;;;;4.05;1.83;;;30.10;39.40;;;;;;5012046;28;20030;-70
2022/08/30 11:55:09;;;;;;;5.57;2.08;;;30.20;40.40;;;;;;4990475;28;20117;-72
2022/08/30 11:58:08;;;;;;;4.30;2.00;;;30.20;41.50;;;;;;5012274;28;20378;-70
2022/08/30 12:00:39;;;;;;;2.08;1.58;;;30.20;40.90;;;;;;5011811;28;20049;-70
2022/08/30 12:03:14;;;;;;;1.85;1.52;;;30.30;41.50;;;;;;5012421;28;20137;-70
2022/08/30 12:05:45;;;;;;;6.53;1.80;;;30.30;40.40;;;;;;5015229;28;20096;-71
2022/08/30 12:08:20;;;;;;;4.70;1.55;;;30.30;40.50;;;;;;5015935;28;20022;-70
2022/08/30 12:10:48;;;;;;;2.90;1.88;;;30.20;40.30;;;;;;5015031;28;20037;-70
2022/08/30 12:13:41;;;;;;;3.80;1.90;;;30.20;40.50;;;;;;5015818;28;20033;-71
2022/08/30 12:16:10;;;;;;;2.97;2.08;;;30.20;41.00;;;;;;5015533;28;20430;-70
2022/08/30 12:18:58;;;;;;;2.80;1.52;;;30.10;40.30;;;;;;5015451;28;20108;-71
2022/08/30 12:21:38;;;;;;;5.00;2.15;;;30.00;40.20;;;;;;5015424;28;20052;-71
2022/08/30 12:24:08;;;;;;;3.50;1.90;;;29.80;40.50;;;;;;5015403;28;20034;-71
2022/08/30 12:26:43;;;;;;;3.85;1.70;;;29.80;40.90;;;;;;5014930;28;20041;-71
2022/08/30 12:29:19;;;;;;;4.72;1.60;;;29.70;41.10;;;;;;5015600;28;20034;-71
2022/08/30 12:32:17;;;;;;;3.22;1.67;;;29.70;42.00;;;;;;5015061;28;20026;-71
2022/08/30 12:34:42;;;;;;;2.22;1.50;;;29.60;41.20;;;;;;5015109;28;20030;-69
2022/08/30 12:37:33;;;;;;;2.85;1.77;;;29.50;41.40;;;;;;5015309;28;20033;-70
2022/08/30 12:40:01;;;;;;;3.92;1.95;;;29.40;42.40;;;;;;5015481;28;20026;-71
2022/08/30 12:42:30;;;;;;;5.45;2.42;;;29.30;41.20;;;;;;5015012;28;20029;-76
2022/08/30 12:45:00;;;;;;;4.60;1.92;;;29.20;41.30;;;;;;5015409;28;20076;-71
2022/08/30 12:47:44;;;;;;;4.47;2.08;;;29.20;41.50;;;;;;5015097;28;20026;-71
2022/08/30 12:50:14;;;;;;;2.97;1.70;;;29.00;42.00;;;;;;5000232;28;20034;-71
2022/08/30 12:52:46;;;;;;;4.50;1.80;;;29.00;42.00;;;;;;4995333;28;20533;-71
2022/08/30 12:55:15;;;;;;;2.95;1.80;;;28.90;42.20;;;;;;4995492;28;20030;-71
2022/08/30 12:57:54;;;;;;;3.45;2.10;;;28.80;42.10;;;;;;4995248;28;20030;-71
2022/08/30 13:00:25;;;;;;;2.65;1.98;;;28.80;42.30;;;;;;4995611;28;20041;-71
2022/08/30 13:02:53;;;;;;;3.08;2.03;;;28.70;42.30;;;;;;4995079;28;20126;-71
2022/08/30 13:05:31;;;;;;;4.57;2.05;;;28.60;42.90;;;;;;4995314;28;20054;-71
2022/08/30 13:08:16;;;;;;;3.92;2.10;;;28.50;43.90;;;;;;4995204;28;20114;-71
2022/08/30 13:11:10;;;;;;;5.75;1.88;;;28.50;43.80;;;;;;5001877;28;20034;-71